createdAt,value
2018-12-31T00:00:43.331Z,38.93
2018-12-31T00:03:11.996Z,41.20
2018-12-31T00:05:40.825Z,35.17
2018-12-31T00:08:09.506Z,39.70
2018-12-31T00:10:38.206Z,38.50
2018-12-31T00:13:07.051Z,25.93
2018-12-31T00:15:35.742Z,26.30
2018-12-31T00:18:04.429Z,26.13
2018-12-31T00:20:33.329Z,33.80
2018-12-31T00:23:02.034Z,27.27
2018-12-31T00:25:30.746Z,23.30
2018-12-31T00:27:59.698Z,23.30
2018-12-31T00:30:28.400Z,24.63
2018-12-31T00:32:57.077Z,27.17
2018-12-31T00:35:25.831Z,28.77
2018-12-31T00:37:54.533Z,30.87
2018-12-31T00:40:23.209Z,32.77
2018-12-31T00:42:58.879Z,30.00
2018-12-31T00:45:22.388Z,32.97
2018-12-31T00:47:51.082Z,36.57
2018-12-31T00:50:19.831Z,34.60
2018-12-31T00:52:48.530Z,33.63
2018-12-31T00:55:17.213Z,46.30
2018-12-31T00:57:45.961Z,54.47
2018-12-31T01:00:14.659Z,54.07
2018-12-31T01:02:43.346Z,56.53
2018-12-31T01:05:12.413Z,51.27
2018-12-31T01:07:41.192Z,43.40
2018-12-31T01:10:09.893Z,44.00
2018-12-31T01:12:38.613Z,46.77
2018-12-31T01:15:07.308Z,42.07
2018-12-31T01:17:36.000Z,47.83
2018-12-31T01:20:04.842Z,48.07
2018-12-31T01:22:33.532Z,45.87
2018-12-31T01:25:02.215Z,53.97
2018-12-31T01:27:31.213Z,46.10
2018-12-31T01:29:59.903Z,42.30
2018-12-31T01:32:28.602Z,40.90
2018-12-31T01:34:57.537Z,40.10
2018-12-31T01:37:26.215Z,41.80
2018-12-31T01:39:54.908Z,38.70
2018-12-31T01:42:23.722Z,37.23
2018-12-31T01:44:52.418Z,40.43
2018-12-31T01:47:21.112Z,36.50
2018-12-31T01:49:49.860Z,35.40
2018-12-31T01:52:18.547Z,35.93
2018-12-31T01:54:47.231Z,39.33
2018-12-31T01:57:16.065Z,38.60
2018-12-31T01:59:44.759Z,41.03
2018-12-31T02:02:13.440Z,41.73
2018-12-31T02:04:42.305Z,44.53
2018-12-31T02:07:11.008Z,43.37
2018-12-31T02:09:39.686Z,45.03
2018-12-31T02:12:08.440Z,44.93
2018-12-31T02:14:37.129Z,44.17
2018-12-31T02:17:05.820Z,44.37
2018-12-31T02:19:34.668Z,38.23
2018-12-31T02:22:03.369Z,40.80
2018-12-31T02:24:32.064Z,39.97
2018-12-31T02:27:01.107Z,42.57
2018-12-31T02:29:29.807Z,39.90
2018-12-31T02:31:58.470Z,37.67
2018-12-31T02:34:27.219Z,36.87
2018-12-31T02:36:55.912Z,34.70
2018-12-31T02:39:24.598Z,32.67
2018-12-31T02:41:54.289Z,34.40
2018-12-31T02:44:22.973Z,36.57
2018-12-31T02:46:51.663Z,30.70
2018-12-31T02:49:20.501Z,32.40
2018-12-31T02:51:49.185Z,32.83
2018-12-31T02:54:17.870Z,32.63
2018-12-31T02:56:46.938Z,38.37
2018-12-31T02:59:15.622Z,32.87
2018-12-31T03:01:44.303Z,31.70
2018-12-31T03:04:13.115Z,32.10
2018-12-31T03:06:41.809Z,37.43
2018-12-31T03:09:10.493Z,35.80
2018-12-31T03:11:39.212Z,35.93
2018-12-31T03:14:07.988Z,35.37
2018-12-31T03:16:36.658Z,36.03
2018-12-31T03:19:05.584Z,34.83
2018-12-31T03:21:34.272Z,35.30
2018-12-31T03:24:02.953Z,36.23
2018-12-31T03:26:31.787Z,37.33
2018-12-31T03:29:00.473Z,38.33
2018-12-31T03:31:29.161Z,35.30
2018-12-31T03:33:58.003Z,36.23
2018-12-31T03:36:26.693Z,42.63
2018-12-31T03:38:55.393Z,35.37
2018-12-31T03:41:24.227Z,38.23
2018-12-31T03:43:52.914Z,33.30
2018-12-31T03:46:21.594Z,30.83
2018-12-31T03:48:50.358Z,31.47
2018-12-31T03:51:19.130Z,33.20
2018-12-31T03:53:47.798Z,37.47
2018-12-31T03:56:16.558Z,36.57
2018-12-31T03:58:45.237Z,37.30
2018-12-31T04:01:13.924Z,45.17
2018-12-31T04:03:42.701Z,47.13
2018-12-31T04:06:11.399Z,55.47
2018-12-31T04:08:40.076Z,59.43
2018-12-31T04:11:08.943Z,47.30
2018-12-31T04:13:37.631Z,59.20
2018-12-31T04:16:06.328Z,118.63
2018-12-31T04:18:35.088Z,62.63
2018-12-31T04:21:03.785Z,51.93
2018-12-31T04:23:32.464Z,53.20
2018-12-31T04:26:01.271Z,45.13
2018-12-31T04:28:29.962Z,41.20
2018-12-31T04:30:58.672Z,38.00
2018-12-31T04:33:27.495Z,41.57
2018-12-31T04:35:56.216Z,39.33
2018-12-31T04:38:24.900Z,40.20
2018-12-31T04:40:53.678Z,38.23
2018-12-31T04:43:22.367Z,38.33
2018-12-31T04:45:51.031Z,36.57
2018-12-31T04:48:19.848Z,38.77
2018-12-31T04:50:48.550Z,46.27
2018-12-31T04:53:17.239Z,55.63
2018-12-31T04:55:46.258Z,59.83
2018-12-31T04:58:22.806Z,66.73
2018-12-31T05:00:45.382Z,69.20
2018-12-31T05:03:14.195Z,72.77
2018-12-31T05:05:42.901Z,64.50
2018-12-31T05:08:11.600Z,69.40
2018-12-31T05:10:40.452Z,51.67
2018-12-31T05:13:09.138Z,52.80
2018-12-31T05:15:37.818Z,65.93
2018-12-31T05:18:06.584Z,67.23
2018-12-31T05:20:35.258Z,70.13
2018-12-31T05:23:05.370Z,76.70
2018-12-31T05:25:34.468Z,68.30
2018-12-31T05:28:03.438Z,49.33
2018-12-31T05:30:32.125Z,52.60
2018-12-31T05:33:01.147Z,49.03
2018-12-31T05:35:29.842Z,53.07
2018-12-31T05:37:58.618Z,45.53
2018-12-31T05:40:27.372Z,42.47
2018-12-31T05:42:56.060Z,42.47
2018-12-31T05:45:24.746Z,41.80
2018-12-31T05:47:53.883Z,36.17
2018-12-31T05:50:22.564Z,35.83
2018-12-31T05:52:51.264Z,36.57
2018-12-31T05:55:19.985Z,36.90
2018-12-31T05:57:48.683Z,40.30
2018-12-31T06:00:17.384Z,40.53
2018-12-31T06:02:46.272Z,46.43
2018-12-31T06:05:14.968Z,52.40
2018-12-31T06:07:43.668Z,46.00
2018-12-31T06:10:12.487Z,46.90
2018-12-31T06:12:41.172Z,45.40
2018-12-31T06:15:09.921Z,42.27
2018-12-31T06:17:38.931Z,41.13
2018-12-31T06:20:07.645Z,38.03
2018-12-31T06:22:36.329Z,37.03
2018-12-31T06:25:05.230Z,45.27
2018-12-31T06:27:33.880Z,60.47
2018-12-31T06:30:02.617Z,36.53
2018-12-31T06:32:31.417Z,36.63
2018-12-31T06:35:00.197Z,39.43
2018-12-31T06:37:28.890Z,34.87
2018-12-31T06:39:57.734Z,28.73
2018-12-31T06:42:26.424Z,27.10
2018-12-31T06:44:55.116Z,53.97
2018-12-31T06:47:23.890Z,67.43
2018-12-31T06:49:52.551Z,81.27
2018-12-31T06:52:21.273Z,236.37
2018-12-31T06:54:50.022Z,66.13
2018-12-31T06:57:18.717Z,38.23
2018-12-31T06:59:47.411Z,29.47
2018-12-31T07:02:16.249Z,28.70
2018-12-31T07:04:44.934Z,31.37
2018-12-31T07:07:13.648Z,49.97
2018-12-31T07:09:42.398Z,33.87
2018-12-31T07:12:11.115Z,28.27
2018-12-31T07:14:39.791Z,32.10
2018-12-31T07:17:08.601Z,34.27
2018-12-31T07:19:37.308Z,47.20
2018-12-31T07:22:05.967Z,40.97
2018-12-31T07:24:34.800Z,23.33
2018-12-31T07:27:03.485Z,30.67
2018-12-31T07:29:32.246Z,33.00
2018-12-31T07:32:01.074Z,27.67
2018-12-31T07:34:29.757Z,28.97
2018-12-31T07:36:58.464Z,188.37
2018-12-31T07:39:27.601Z,114.17
2018-12-31T07:41:56.300Z,246.00
2018-12-31T07:44:24.989Z,31.10
2018-12-31T07:46:54.855Z,21.90
2018-12-31T07:49:23.683Z,23.20
2018-12-31T07:51:52.371Z,24.10
2018-12-31T07:54:21.127Z,23.53
2018-12-31T07:56:49.810Z,27.43
2018-12-31T07:59:18.622Z,24.07
2018-12-31T08:01:47.616Z,25.80
2018-12-31T08:04:16.404Z,29.60
2018-12-31T08:06:45.135Z,26.60
2018-12-31T08:09:13.887Z,34.47
2018-12-31T08:11:42.773Z,28.43
2018-12-31T08:14:11.615Z,34.47
2018-12-31T08:16:40.485Z,32.47
2018-12-31T08:19:09.198Z,27.10
2018-12-31T08:21:37.948Z,26.17
2018-12-31T08:24:06.961Z,27.30
2018-12-31T08:26:35.701Z,34.33
2018-12-31T08:29:04.415Z,28.57
2018-12-31T08:31:33.410Z,29.40
2018-12-31T08:34:02.136Z,33.53
2018-12-31T08:36:33.667Z,46.23
2018-12-31T08:39:02.505Z,29.40
2018-12-31T08:41:31.191Z,30.60
2018-12-31T08:43:59.872Z,34.77
2018-12-31T08:46:28.713Z,30.70
2018-12-31T08:48:57.477Z,30.20
2018-12-31T08:51:26.181Z,29.07
2018-12-31T08:53:54.958Z,31.23
2018-12-31T08:56:23.661Z,31.07
2018-12-31T08:58:52.359Z,32.70
2018-12-31T09:01:21.481Z,28.83
2018-12-31T09:03:50.167Z,30.57
2018-12-31T09:06:18.869Z,26.57
2018-12-31T09:08:49.342Z,25.23
2018-12-31T09:11:18.064Z,33.17
2018-12-31T09:13:46.771Z,31.63
2018-12-31T09:16:15.683Z,26.43
2018-12-31T09:18:44.362Z,26.50
2018-12-31T09:21:13.059Z,28.67
2018-12-31T09:23:41.813Z,26.67
2018-12-31T09:26:14.948Z,31.87
2018-12-31T09:28:43.646Z,25.40
2018-12-31T09:31:12.476Z,26.47
2018-12-31T09:33:41.152Z,26.10
2018-12-31T09:36:09.842Z,26.33
2018-12-31T09:38:38.681Z,25.70
2018-12-31T09:41:07.375Z,25.50
2018-12-31T09:43:36.060Z,24.90
2018-12-31T09:46:05.152Z,23.50
2018-12-31T09:48:33.882Z,23.40
2018-12-31T09:51:02.563Z,24.90
2018-12-31T09:53:31.430Z,23.37
2018-12-31T09:56:43.487Z,25.90
2018-12-31T09:58:43.872Z,25.30
2018-12-31T10:01:12.717Z,25.40
2018-12-31T10:03:41.408Z,26.53
2018-12-31T10:06:10.161Z,32.13
2018-12-31T10:08:38.963Z,23.53
2018-12-31T10:11:07.690Z,23.23
2018-12-31T10:13:38.235Z,22.60
2018-12-31T10:16:15.087Z,21.57
2018-12-31T10:18:44.154Z,22.83
2018-12-31T10:21:12.850Z,20.37
2018-12-31T10:23:41.540Z,30.37
2018-12-31T10:26:10.380Z,20.67
2018-12-31T10:28:39.226Z,23.83
2018-12-31T10:31:08.168Z,20.73
2018-12-31T10:33:37.224Z,19.03
2018-12-31T10:36:06.202Z,34.03
2018-12-31T10:38:35.050Z,19.27
2018-12-31T10:41:04.072Z,18.13
2018-12-31T10:43:32.911Z,85.00
2018-12-31T10:46:01.650Z,20.07
2018-12-31T10:48:30.375Z,22.87
2018-12-31T10:50:59.066Z,22.93
2018-12-31T10:53:27.751Z,21.57
2018-12-31T10:55:56.624Z,20.50
2018-12-31T10:58:25.319Z,22.87
2018-12-31T11:00:54.024Z,32.50
2018-12-31T11:03:22.961Z,21.57
2018-12-31T11:05:51.648Z,20.80
2018-12-31T11:08:20.353Z,21.77
2018-12-31T11:10:49.428Z,20.10
2018-12-31T11:13:18.115Z,22.77
2018-12-31T11:15:46.817Z,23.10
2018-12-31T11:18:15.772Z,23.00
2018-12-31T11:20:44.466Z,21.53
2018-12-31T11:23:13.180Z,22.10
2018-12-31T11:25:42.143Z,26.83
2018-12-31T11:28:10.833Z,22.00
2018-12-31T11:30:39.540Z,20.97
2018-12-31T11:33:08.490Z,24.87
2018-12-31T11:35:37.179Z,26.53
2018-12-31T11:38:05.866Z,27.20
2018-12-31T11:40:34.682Z,23.43
2018-12-31T11:43:03.384Z,22.63
2018-12-31T11:45:32.069Z,22.87
2018-12-31T11:48:01.016Z,19.87
2018-12-31T11:50:29.724Z,28.67
2018-12-31T11:52:58.415Z,18.53
2018-12-31T11:55:27.259Z,25.80
2018-12-31T11:57:55.949Z,18.87
2018-12-31T12:00:24.745Z,24.77
2018-12-31T12:02:53.486Z,19.10
2018-12-31T12:05:22.177Z,19.33
2018-12-31T12:07:50.913Z,21.07
2018-12-31T12:10:19.754Z,23.80
2018-12-31T12:12:48.454Z,17.10
2018-12-31T12:15:17.135Z,20.77
2018-12-31T12:17:45.874Z,21.40
2018-12-31T12:20:14.967Z,49.37
2018-12-31T12:22:43.734Z,22.33
2018-12-31T12:28:15.503Z,21.23
2018-12-31T12:36:52.248Z,26.00
2018-12-31T12:39:20.939Z,24.70
2018-12-31T12:41:49.610Z,19.90
2018-12-31T12:44:18.455Z,22.83
2018-12-31T12:46:47.143Z,19.07
2018-12-31T12:49:15.828Z,29.30
2018-12-31T12:51:44.678Z,30.03
2018-12-31T12:54:13.377Z,21.50
2018-12-31T12:56:42.054Z,18.00
2018-12-31T12:59:11.195Z,20.30
2018-12-31T13:01:39.990Z,23.67
2018-12-31T13:04:08.660Z,22.03
2018-12-31T13:06:37.513Z,21.37
2018-12-31T13:09:07.196Z,19.80
2018-12-31T13:11:35.882Z,28.37
2018-12-31T13:14:04.595Z,22.77
2018-12-31T13:16:33.282Z,20.37
2018-12-31T13:19:01.993Z,24.10
2018-12-31T13:21:30.740Z,21.87
2018-12-31T13:23:59.434Z,22.83
2018-12-31T13:26:28.116Z,26.60
2018-12-31T13:28:56.835Z,29.70
2018-12-31T13:31:25.525Z,28.27
2018-12-31T13:33:54.221Z,49.53
2018-12-31T13:36:25.114Z,18.57
2018-12-31T13:38:53.677Z,19.97
2018-12-31T13:41:22.370Z,20.83
2018-12-31T13:43:51.111Z,24.07
2018-12-31T13:46:19.786Z,20.23
2018-12-31T13:48:48.466Z,23.23
2018-12-31T13:51:17.330Z,22.53
2018-12-31T13:53:46.072Z,25.30
2018-12-31T13:56:14.755Z,27.53
2018-12-31T13:58:43.638Z,22.90
2018-12-31T14:01:12.282Z,24.00
2018-12-31T14:03:40.960Z,27.80
2018-12-31T14:06:09.763Z,20.57
2018-12-31T14:08:38.441Z,23.73
2018-12-31T14:11:07.125Z,22.90
2018-12-31T14:13:36.045Z,26.63
2018-12-31T14:16:04.754Z,25.33
2018-12-31T14:18:33.427Z,28.30
2018-12-31T14:21:02.379Z,25.13
2018-12-31T14:23:31.078Z,28.40
2018-12-31T14:25:59.745Z,28.10
2018-12-31T14:31:30.544Z,30.20
2018-12-31T14:33:59.232Z,32.40
2018-12-31T14:36:27.933Z,29.40
2018-12-31T14:38:57.266Z,32.70
2018-12-31T14:41:25.978Z,47.30
2018-12-31T14:43:54.804Z,54.23
2018-12-31T14:46:23.723Z,62.43
2018-12-31T14:48:52.412Z,46.23
2018-12-31T14:51:21.274Z,46.93
2018-12-31T14:53:50.326Z,43.83
2018-12-31T14:56:19.021Z,39.77
2018-12-31T14:58:47.725Z,37.50
2018-12-31T15:01:16.495Z,43.23
2018-12-31T15:03:45.350Z,41.20
2018-12-31T15:06:14.049Z,63.67
2018-12-31T15:08:42.885Z,49.67
2018-12-31T15:11:13.206Z,422.10
2018-12-31T15:13:41.945Z,318.43
2018-12-31T15:16:11.083Z,142.20
2018-12-31T15:18:40.357Z,52.27
2018-12-31T15:21:09.109Z,613.20
2018-12-31T15:23:37.873Z,1031.63
2018-12-31T15:26:06.573Z,508.53
2018-12-31T15:28:35.266Z,411.97
2018-12-31T15:31:03.999Z,428.83
2018-12-31T15:33:32.689Z,649.27
2018-12-31T15:36:01.570Z,553.03
2018-12-31T15:38:30.895Z,271.00
2018-12-31T15:41:11.241Z,189.20
2018-12-31T15:43:46.153Z,219.70
2018-12-31T15:46:20.214Z,219.50
2018-12-31T15:48:46.973Z,498.80
2018-12-31T15:51:17.108Z,494.00
2018-12-31T15:53:45.838Z,725.13
2018-12-31T15:56:14.570Z,405.70
2018-12-31T15:58:43.637Z,586.63
2018-12-31T16:01:12.420Z,549.77
2018-12-31T16:03:48.087Z,333.60
2018-12-31T16:06:17.145Z,353.80
2018-12-31T16:08:46.028Z,447.80
2018-12-31T16:11:16.518Z,266.47
2018-12-31T16:13:45.229Z,344.93
2018-12-31T16:16:13.925Z,206.17
2018-12-31T16:18:42.798Z,142.10
2018-12-31T16:21:11.753Z,112.57
2018-12-31T16:23:40.414Z,90.00
2018-12-31T16:26:09.236Z,63.13
2018-12-31T16:28:39.189Z,37.47
2018-12-31T16:31:07.872Z,29.27
2018-12-31T16:33:36.818Z,27.70
2018-12-31T16:36:05.527Z,24.87
2018-12-31T16:38:34.219Z,27.03
2018-12-31T16:41:03.046Z,24.43
2018-12-31T16:43:31.741Z,20.77
2018-12-31T16:46:00.464Z,20.30
2018-12-31T16:48:29.417Z,22.13
2018-12-31T16:50:58.119Z,23.73
2018-12-31T16:53:26.984Z,30.23
2018-12-31T16:55:55.719Z,28.57
2018-12-31T16:58:24.452Z,29.73
2018-12-31T17:00:53.135Z,28.13
2018-12-31T17:03:23.384Z,22.90
2018-12-31T17:05:52.250Z,21.87
2018-12-31T17:08:20.949Z,23.23
2018-12-31T17:10:49.729Z,30.17
2018-12-31T17:13:18.420Z,51.77
2018-12-31T17:15:47.167Z,49.27
2018-12-31T17:18:16.252Z,54.77
2018-12-31T17:23:46.789Z,51.27
2018-12-31T17:26:15.925Z,72.53
2018-12-31T17:28:44.840Z,71.07
2018-12-31T17:31:13.881Z,67.57
2018-12-31T17:33:42.579Z,62.60
2018-12-31T17:36:11.292Z,55.67
2018-12-31T17:38:40.722Z,56.90
2018-12-31T17:41:09.414Z,58.40
2018-12-31T17:43:38.141Z,74.53
2018-12-31T17:46:06.963Z,74.03
2018-12-31T17:48:35.648Z,99.33
2018-12-31T17:51:04.415Z,105.43
2018-12-31T17:53:33.341Z,118.03
2018-12-31T17:56:02.056Z,140.90
2018-12-31T17:58:30.740Z,140.67
2018-12-31T18:00:59.525Z,100.37
2018-12-31T18:03:28.219Z,80.37
2018-12-31T18:05:56.921Z,122.60
2018-12-31T18:08:25.782Z,131.70
2018-12-31T18:10:54.473Z,65.90
2018-12-31T18:13:23.187Z,71.27
2018-12-31T18:15:52.113Z,107.53
2018-12-31T18:18:20.765Z,72.97
2018-12-31T18:20:49.465Z,82.33
2018-12-31T18:23:18.293Z,130.60
2018-12-31T18:25:46.993Z,116.17
2018-12-31T18:28:15.678Z,84.57
2018-12-31T18:30:44.642Z,25.03
2018-12-31T18:33:13.327Z,57.40
2018-12-31T18:35:42.033Z,69.33
2018-12-31T18:38:10.953Z,89.53
2018-12-31T18:40:39.664Z,114.03
2018-12-31T18:43:08.604Z,25.43
2018-12-31T18:45:37.502Z,19.90
2018-12-31T18:48:06.708Z,13.60
2018-12-31T18:50:35.416Z,14.60
2018-12-31T18:53:04.288Z,16.80
2018-12-31T18:55:33.452Z,17.10
2018-12-31T18:58:02.137Z,16.30
2018-12-31T19:00:30.893Z,20.70
2018-12-31T19:02:59.578Z,16.93
2018-12-31T19:05:28.267Z,20.27
2018-12-31T19:07:57.363Z,19.57
2018-12-31T19:10:26.045Z,27.57
2018-12-31T19:12:54.744Z,35.50
2018-12-31T19:15:23.588Z,23.17
2018-12-31T19:17:52.359Z,18.37
2018-12-31T19:20:22.531Z,15.83
2018-12-31T19:22:51.410Z,18.97
2018-12-31T19:25:20.131Z,47.57
2018-12-31T19:27:48.938Z,36.70
2018-12-31T19:30:17.791Z,31.70
2018-12-31T19:32:46.538Z,21.10
2018-12-31T19:35:15.232Z,17.70
2018-12-31T19:37:44.053Z,27.63
2018-12-31T19:40:12.738Z,16.73
2018-12-31T19:42:41.424Z,17.40
2018-12-31T19:45:10.197Z,23.67
2018-12-31T19:47:39.090Z,20.63
2018-12-31T19:50:07.969Z,17.70
2018-12-31T19:52:36.731Z,28.20
2018-12-31T19:55:08.511Z,49.93
2018-12-31T19:57:37.216Z,24.53
2018-12-31T20:00:08.437Z,24.20
2018-12-31T20:02:37.121Z,26.37
2018-12-31T20:05:06.002Z,22.90
2018-12-31T20:07:34.723Z,20.60
2018-12-31T20:10:03.426Z,26.90
2018-12-31T20:12:32.280Z,39.43
2018-12-31T20:15:01.009Z,26.20
2018-12-31T20:17:29.778Z,26.40
2018-12-31T20:19:58.504Z,23.70
2018-12-31T20:22:27.365Z,21.40
2018-12-31T20:24:56.249Z,22.13
2018-12-31T20:27:24.937Z,26.43
2018-12-31T20:29:54.260Z,29.50
2018-12-31T20:32:22.937Z,23.53
2018-12-31T20:34:51.729Z,24.50
2018-12-31T20:37:20.657Z,24.03
2018-12-31T20:39:49.719Z,28.13
2018-12-31T20:42:19.144Z,23.50
2018-12-31T20:44:48.047Z,19.97
2018-12-31T20:47:16.735Z,22.23
2018-12-31T20:49:51.573Z,24.03
2018-12-31T20:52:20.987Z,19.40
2018-12-31T20:54:49.682Z,22.83
2018-12-31T20:57:18.370Z,23.07
2018-12-31T20:59:47.235Z,24.43
2018-12-31T21:02:15.905Z,24.73
2018-12-31T21:04:44.588Z,22.47
2018-12-31T21:07:13.422Z,25.20
2018-12-31T21:09:42.126Z,25.50
2018-12-31T21:12:10.931Z,28.53
2018-12-31T21:14:39.841Z,30.47
2018-12-31T21:17:08.529Z,46.30
2018-12-31T21:19:37.313Z,52.40
2018-12-31T21:22:06.063Z,58.77
2018-12-31T21:24:34.728Z,72.63
2018-12-31T21:27:03.418Z,66.57
2018-12-31T21:29:32.261Z,95.40
2018-12-31T21:32:01.324Z,101.07
2018-12-31T21:34:30.013Z,73.47
2018-12-31T21:36:58.836Z,64.63
2018-12-31T21:39:27.536Z,40.80
2018-12-31T21:41:56.255Z,41.37
2018-12-31T21:44:26.111Z,42.87
2018-12-31T21:46:54.788Z,52.67
2018-12-31T21:49:24.999Z,41.33
2018-12-31T21:51:54.000Z,34.23
2018-12-31T21:54:22.790Z,40.07
2018-12-31T21:56:51.545Z,44.97
2018-12-31T21:59:20.538Z,31.57
2018-12-31T22:01:49.283Z,30.23
2018-12-31T22:04:17.979Z,48.00
2018-12-31T22:06:48.948Z,51.27
2018-12-31T22:09:17.701Z,31.27
2018-12-31T22:11:46.662Z,27.90
2018-12-31T22:14:15.701Z,30.70
2018-12-31T22:16:44.363Z,33.33
2018-12-31T22:19:13.084Z,31.77
2018-12-31T22:21:41.867Z,35.00
2018-12-31T22:24:10.931Z,34.97
2018-12-31T22:26:39.627Z,34.97
2018-12-31T22:29:08.441Z,45.93
2018-12-31T22:31:37.141Z,36.00
2018-12-31T22:34:05.841Z,43.03
2018-12-31T22:36:34.566Z,40.23
2018-12-31T22:39:04.715Z,45.03
2018-12-31T22:41:33.453Z,45.13
2018-12-31T22:44:02.221Z,50.03
2018-12-31T22:46:30.906Z,53.53
2018-12-31T22:48:59.690Z,57.20
2018-12-31T22:51:31.874Z,63.00
2018-12-31T22:54:00.560Z,72.43
2018-12-31T22:56:30.104Z,75.57
2018-12-31T22:58:58.855Z,106.90
2018-12-31T23:01:28.022Z,113.03
2018-12-31T23:03:56.717Z,113.47
2018-12-31T23:06:25.575Z,105.03
2018-12-31T23:08:55.714Z,114.27
2018-12-31T23:11:24.412Z,140.33
2018-12-31T23:13:53.743Z,144.03
2018-12-31T23:16:24.274Z,163.33
2018-12-31T23:18:52.974Z,181.47
2018-12-31T23:21:21.820Z,191.67
2018-12-31T23:23:50.541Z,195.33
2018-12-31T23:26:19.741Z,220.53
2018-12-31T23:28:52.416Z,233.30
2018-12-31T23:31:18.952Z,193.57
2018-12-31T23:33:47.641Z,135.47
2018-12-31T23:36:16.429Z,100.40
2018-12-31T23:38:45.116Z,75.40
2018-12-31T23:41:15.097Z,66.63
2018-12-31T23:43:48.918Z,53.13
2018-12-31T23:46:17.607Z,51.23
2018-12-31T23:48:54.001Z,59.33
2018-12-31T23:51:24.088Z,54.17
2018-12-31T23:53:52.777Z,53.57
2018-12-31T23:56:23.168Z,61.97
2018-12-31T23:58:54.189Z,88.93
